Time;durP1;ratioP1;P1;durP2;ratioP2;P2;SDS_P1;SDS_P2;PMS_P1;PMS_P2;Temp;Humidity;BMP_temperature;BMP_pressure;BME280_temperature;BME280_humidity;BME280_pressure;Samples;Min_cycle;Max_cycle;Signal;HPM_P1;HPM_P2
2022/05/14 00:01:42;;;;;;;5.07;2.77;;;11.70;99.90;12.30;97119.00;;;;5045058;28;20203;-67
2022/05/14 00:04:31;;;;;;;3.70;2.90;;;11.70;99.90;12.20;97123.00;;;;5050595;28;20203;-68
2022/05/14 00:07:20;;;;;;;4.00;3.23;;;11.60;99.90;12.10;97124.00;;;;5061971;28;20239;-68
2022/05/14 00:10:10;;;;;;;5.47;2.57;;;11.60;99.90;12.00;97128.00;;;;5052879;28;20228;-69
2022/05/14 00:13:04;;;;;;;3.43;2.57;;;11.60;99.90;11.90;97121.00;;;;5056315;28;20219;-68
2022/05/14 00:15:55;;;;;;;5.10;2.83;;;11.50;99.90;12.10;97121.00;;;;5049527;28;20200;-68
2022/05/14 00:18:44;;;;;;;2.97;2.77;;;11.60;99.90;12.00;97129.00;;;;5054216;28;20204;-68
2022/05/14 00:21:35;;;;;;;3.57;2.20;;;11.50;99.90;12.10;97132.00;;;;5049997;28;20208;-68
2022/05/14 00:24:24;;;;;;;4.40;3.00;;;11.40;99.90;12.20;97127.00;;;;5053433;28;20207;-68
2022/05/14 00:27:12;;;;;;;6.40;2.47;;;11.50;99.90;12.10;97133.00;;;;5043484;28;20686;-68
2022/05/14 00:30:01;;;;;;;5.07;2.90;;;11.50;99.90;12.20;97120.00;;;;5052365;28;20295;-68
2022/05/14 00:32:52;;;;;;;4.63;2.90;;;11.50;99.90;12.30;97129.00;;;;5052853;28;20730;-67
2022/05/14 00:35:42;;;;;;;3.30;2.13;;;11.50;99.90;12.40;97117.00;;;;5053952;28;20204;-68
2022/05/14 00:38:31;;;;;;;7.90;3.70;;;11.50;99.90;12.50;97112.00;;;;5052175;28;20204;-67
2022/05/14 00:41:20;;;;;;;3.20;2.77;;;11.50;99.90;12.60;97121.00;;;;5053738;28;20458;-67
2022/05/14 00:44:09;;;;;;;6.60;2.83;;;11.50;99.90;12.50;97111.00;;;;5061846;28;20214;-68
2022/05/14 00:47:02;;;;;;;8.80;3.07;;;11.50;99.90;11.90;97107.00;;;;5051494;28;20212;-67
2022/05/14 00:49:52;;;;;;;3.27;2.23;;;11.40;99.90;11.60;97109.00;;;;5043086;28;20240;-68
2022/05/14 00:52:41;;;;;;;5.63;2.73;;;11.30;99.90;11.90;97110.00;;;;5051483;28;20211;-68
2022/05/14 00:55:30;;;;;;;5.67;3.20;;;11.20;99.90;11.90;97107.00;;;;5056464;28;20664;-68
2022/05/14 00:58:31;;;;;;;3.93;2.90;;;11.10;99.90;11.70;97105.00;;;;5053066;28;20219;-68
2022/05/14 01:01:20;;;;;;;2.90;2.70;;;11.00;99.90;11.90;97112.00;;;;5058172;28;20197;-68
2022/05/14 01:04:10;;;;;;;7.80;3.23;;;11.10;99.90;11.70;97098.00;;;;5051120;28;20188;-68
2022/05/14 01:07:05;;;;;;;5.50;2.80;;;11.00;99.90;11.60;97104.00;;;;5053722;28;20220;-68
2022/05/14 01:09:59;;;;;;;4.47;3.37;;;11.00;99.90;11.90;97104.00;;;;5064969;28;20215;-67
2022/05/14 01:12:52;;;;;;;3.37;3.07;;;11.00;99.90;12.00;97109.00;;;;5052475;28;20200;-68
2022/05/14 01:15:48;;;;;;;4.10;3.10;;;11.00;99.90;11.80;97102.00;;;;5050914;28;20197;-67
2022/05/14 01:18:39;;;;;;;4.63;3.13;;;11.00;99.90;11.60;97105.00;;;;5051964;28;20208;-68
2022/05/14 01:21:36;;;;;;;3.70;2.60;;;10.90;99.90;11.60;97104.00;;;;5045227;28;20231;-67
2022/05/14 01:27:48;;;;;;;3.33;3.03;;;10.90;99.90;11.40;97105.00;;;;5054870;28;20490;-67
2022/05/14 01:30:47;;;;;;;2.87;2.57;;;10.70;99.90;11.20;97097.00;;;;5056431;28;20224;-67
2022/05/14 01:33:37;;;;;;;3.33;2.87;;;10.60;99.90;11.40;97094.00;;;;5050255;28;20201;-68
2022/05/14 01:36:26;;;;;;;3.10;2.90;;;10.60;99.90;11.30;97109.00;;;;5048064;28;20593;-67
2022/05/14 01:39:15;;;;;;;6.67;3.20;;;10.60;99.90;11.40;97115.00;;;;5050040;28;20228;-68
2022/05/14 01:42:07;;;;;;;4.57;3.10;;;10.60;99.90;11.10;97105.00;;;;5058666;28;20211;-68
2022/05/14 01:44:57;;;;;;;9.10;3.20;;;10.40;99.90;11.30;97103.00;;;;5055992;28;20204;-68
2022/05/14 01:47:46;;;;;;;3.63;3.17;;;10.60;99.90;11.20;97113.00;;;;5060411;28;20197;-67
2022/05/14 01:50:35;;;;;;;3.53;2.83;;;10.40;99.90;11.20;97109.00;;;;5050928;28;20219;-68
2022/05/14 01:53:24;;;;;;;2.83;2.60;;;10.50;99.90;11.30;97108.00;;;;5051085;28;20706;-67
2022/05/14 01:56:13;;;;;;;3.47;2.43;;;10.30;99.90;11.20;97118.00;;;;5045125;28;20216;-67
2022/05/14 01:59:02;;;;;;;3.73;3.43;;;;;10.80;97110.00;;;;5046940;28;20227;-68
2022/05/14 02:01:53;;;;;;;3.67;2.80;;;;;10.50;97111.00;;;;5045976;28;20208;-68
2022/05/14 02:04:41;;;;;;;6.45;3.05;;;10.10;99.90;10.50;97112.00;;;;5051389;28;20231;-68
2022/05/14 02:07:30;;;;;;;4.57;3.23;;;10.10;99.90;10.80;97103.00;;;;5060026;28;20225;-68
2022/05/14 02:10:19;;;;;;;4.27;3.60;;;10.10;99.90;10.90;97101.00;;;;5064799;28;20219;-68
2022/05/14 02:13:10;;;;;;;4.10;3.20;;;10.00;99.90;10.40;97105.00;;;;5054635;28;20204;-67
2022/05/14 02:15:59;;;;;;;4.03;3.13;;;10.00;99.90;10.40;97111.00;;;;5047601;28;20675;-67
2022/05/14 02:18:50;;;;;;;3.00;2.73;;;9.90;99.90;10.20;97109.00;;;;5044665;28;20196;-68
2022/05/14 02:21:38;;;;;;;3.67;3.37;;;9.80;99.90;10.60;97113.00;;;;5045974;28;20199;-67
2022/05/14 02:24:27;;;;;;;4.35;3.83;;;9.80;99.90;10.30;97116.00;;;;5042957;28;20386;-68
2022/05/14 02:27:16;;;;;;;5.28;3.70;;;9.70;99.90;10.20;97112.00;;;;5054581;28;20388;-68
2022/05/14 02:30:06;;;;;;;4.97;3.13;;;9.70;99.90;10.40;97111.00;;;;5059961;28;20229;-68
2022/05/14 02:32:55;;;;;;;4.63;3.58;;;9.70;99.90;10.10;97114.00;;;;5047293;28;20413;-68
2022/05/14 02:35:45;;;;;;;3.50;3.20;;;9.60;99.90;10.10;97108.00;;;;5057649;28;20200;-68
2022/05/14 02:38:35;;;;;;;7.87;3.47;;;9.60;99.90;10.00;97108.00;;;;5049623;28;20204;-68
2022/05/14 02:41:24;;;;;;;4.60;3.17;;;9.50;99.90;10.00;97114.00;;;;5051801;28;20212;-68
2022/05/14 02:44:13;;;;;;;4.72;3.92;;;9.50;99.90;10.10;97108.00;;;;5050148;28;20394;-69
2022/05/14 02:47:02;;;;;;;3.85;3.55;;;9.50;99.90;10.20;97110.00;;;;5043198;28;20393;-69
2022/05/14 02:49:51;;;;;;;3.27;3.00;;;9.50;99.90;10.20;97108.00;;;;5062550;28;20235;-69
2022/05/14 02:52:41;;;;;;;3.27;2.97;;;9.50;99.90;10.20;97099.00;;;;5052523;28;20208;-69
2022/05/14 02:55:30;;;;;;;3.33;2.83;;;9.50;99.90;10.30;97101.00;;;;5057975;28;20663;-69
2022/05/14 03:01:22;;;;;;;7.07;3.90;;;9.50;99.90;10.40;97108.00;;;;5054048;28;20223;-68
2022/05/14 03:04:11;;;;;;;6.37;3.03;;;10.10;99.90;10.20;97114.00;;;;5065353;28;20203;-68
2022/05/14 03:07:00;;;;;;;5.83;3.53;;;9.50;99.90;10.10;97107.00;;;;5054046;28;20204;-69
2022/05/14 03:09:50;;;;;;;4.87;3.47;;;9.50;99.90;9.90;97110.00;;;;5047641;28;20251;-68
2022/05/14 03:12:39;;;;;;;3.23;2.93;;;9.50;99.90;9.80;97116.00;;;;5053364;28;20197;-69
2022/05/14 03:15:28;;;;;;;4.17;3.20;;;9.40;99.90;9.70;97121.00;;;;5058442;28;20388;-68
2022/05/14 03:18:17;;;;;;;7.63;2.93;;;9.40;99.90;10.00;97127.00;;;;5056809;28;20690;-68
2022/05/14 03:21:08;;;;;;;4.20;3.27;;;9.40;99.90;10.10;97117.00;;;;5063247;28;20201;-68
2022/05/14 03:23:57;;;;;;;4.77;3.53;;;9.40;99.90;10.00;97121.00;;;;5051612;28;20212;-69
2022/05/14 03:26:47;;;;;;;7.07;3.83;;;9.40;99.90;9.90;97128.00;;;;5054834;28;20217;-68
2022/05/14 03:29:37;;;;;;;4.47;3.00;;;9.40;99.90;9.60;97133.00;;;;5050569;28;20238;-68
2022/05/14 03:32:26;;;;;;;3.83;3.27;;;9.20;99.90;9.60;97131.00;;;;5051258;28;20212;-68
2022/05/14 03:35:15;;;;;;;4.50;3.63;;;9.20;99.90;10.10;97141.00;;;;5047056;28;20215;-68
2022/05/14 03:38:04;;;;;;;4.83;3.67;;;9.20;99.90;10.10;97138.00;;;;5051307;28;20570;-69
2022/05/14 03:40:53;;;;;;;5.03;3.87;;;9.20;99.90;10.20;97144.00;;;;5061088;28;20790;-69
2022/05/14 03:43:44;;;;;;;4.10;3.67;;;9.20;99.90;10.20;97139.00;;;;5051605;28;20200;-69
2022/05/14 03:46:32;;;;;;;4.57;3.70;;;9.30;99.90;9.70;97140.00;;;;5057801;28;20208;-68
2022/05/14 03:49:21;;;;;;;8.43;3.60;;;9.20;99.90;10.00;97146.00;;;;5070214;22;20217;-70
2022/05/14 03:52:10;;;;;;;5.33;4.00;;;9.20;99.90;9.90;97149.00;;;;5030315;28;20205;-70
2022/05/14 03:54:59;;;;;;;4.13;3.83;;;9.20;99.90;10.00;97154.00;;;;5028559;28;20209;-70
2022/05/14 03:57:47;;;;;;;4.60;3.50;;;9.20;99.90;10.30;97148.00;;;;5028383;28;20209;-70
2022/05/14 04:00:38;;;;;;;8.27;4.03;;;9.30;99.90;10.40;97151.00;;;;5039533;28;20232;-70
2022/05/14 04:03:27;;;;;;;4.47;4.07;;;9.30;99.90;10.30;97149.00;;;;5034603;28;20201;-70
2022/05/14 04:06:16;;;;;;;12.17;4.07;;;9.40;99.90;10.10;97153.00;;;;5031257;28;20209;-71
2022/05/14 04:09:05;;;;;;;5.40;4.50;;;9.40;99.90;9.90;97166.00;;;;5030436;28;20209;-69
2022/05/14 04:11:54;;;;;;;3.87;3.47;;;9.30;99.90;9.70;97161.00;;;;5035076;28;20201;-69
2022/05/14 04:14:43;;;;;;;9.70;4.80;;;9.30;99.90;9.90;97165.00;;;;5030868;28;20213;-69
2022/05/14 04:17:33;;;;;;;10.33;4.90;;;9.30;99.90;10.20;97167.00;;;;5030923;28;20217;-69
2022/05/14 04:20:22;;;;;;;4.00;3.60;;;9.30;99.90;10.30;97172.00;;;;5026816;28;20229;-69
2022/05/14 04:23:11;;;;;;;8.70;4.40;;;9.40;99.90;10.10;97170.00;;;;5032627;28;20201;-69
2022/05/14 04:26:01;;;;;;;4.23;3.53;;;9.40;99.90;10.20;97181.00;;;;5018845;28;20208;-69
2022/05/14 04:28:50;;;;;;;6.03;4.47;;;9.40;99.90;10.40;97179.00;;;;5031242;28;20205;-69
2022/05/14 04:31:40;;;;;;;3.97;3.67;;;9.40;99.90;10.60;97178.00;;;;5032508;28;20209;-69
2022/05/14 04:34:30;;;;;;;5.97;4.10;;;9.50;99.90;10.70;97187.00;;;;5019894;28;20213;-69
2022/05/14 04:37:19;;;;;;;4.60;3.57;;;9.60;99.90;10.60;97188.00;;;;5025714;28;20216;-69
2022/05/14 04:40:12;;;;;;;5.50;3.73;;;9.70;99.90;10.60;97184.00;;;;5022982;28;20233;-71
2022/05/14 04:43:00;;;;;;;7.43;3.90;;;9.70;99.90;10.80;97188.00;;;;5025827;28;20202;-69
2022/05/14 04:45:49;;;;;;;4.03;3.63;;;9.80;99.90;11.10;97185.00;;;;5022944;28;20201;-69
2022/05/14 04:48:38;;;;;;;6.83;4.07;;;9.90;99.90;11.20;97193.00;;;;5030361;28;20212;-71
2022/05/14 04:51:29;;;;;;;5.07;3.60;;;10.00;99.90;11.20;97195.00;;;;5030734;28;20229;-71
2022/05/14 04:54:18;;;;;;;4.87;3.70;;;10.10;99.90;11.20;97194.00;;;;5019046;28;20205;-70
2022/05/14 04:57:08;;;;;;;5.00;4.03;;;10.20;99.90;11.20;97191.00;;;;5026664;28;20208;-70
2022/05/14 04:59:56;;;;;;;6.10;4.17;;;10.30;99.90;11.30;97199.00;;;;5023347;28;20680;-70
2022/05/14 05:05:55;;;;;;;6.03;3.77;;;10.40;99.90;11.40;97195.00;;;;5026313;28;20193;-70
2022/05/14 05:08:45;;;;;;;6.40;3.57;;;10.50;99.90;11.60;97206.00;;;;5025810;28;20216;-70
2022/05/14 05:11:34;;;;;;;7.53;4.40;;;10.60;99.90;11.70;97202.00;;;;5029039;28;20229;-70
2022/05/14 05:14:23;;;;;;;10.13;3.77;;;10.70;99.90;11.60;97197.00;;;;5026833;28;20224;-69
2022/05/14 05:17:11;;;;;;;5.07;3.47;;;10.80;99.90;11.50;97203.00;;;;5024664;28;20684;-69
2022/05/14 05:20:00;;;;;;;7.00;5.00;;;10.80;99.90;11.60;97203.00;;;;5027259;28;20232;-69
2022/05/14 05:22:49;;;;;;;6.07;4.33;;;11.10;99.90;11.90;97208.00;;;;5027988;28;20205;-69
2022/05/14 05:25:40;;;;;;;8.63;6.10;;;11.00;99.90;12.20;97209.00;;;;5031228;28;20199;-69
2022/05/14 05:28:29;;;;;;;6.70;5.97;;;11.10;99.90;12.50;97207.00;;;;5025782;28;20212;-69
2022/05/14 05:31:18;;;;;;;6.77;4.33;;;11.30;99.90;12.60;97209.00;;;;5027956;28;20684;-69
2022/05/14 05:34:07;;;;;;;5.67;3.90;;;11.40;99.90;12.50;97210.00;;;;5038579;28;20197;-69
2022/05/14 05:36:56;;;;;;;17.00;11.90;;;11.50;99.90;12.30;97204.00;;;;5029133;28;20824;-70
2022/05/14 05:39:45;;;;;;;11.57;7.47;;;11.60;99.90;12.60;97225.00;;;;5028621;28;20764;-70
2022/05/14 05:42:36;;;;;;;6.10;5.07;;;11.70;99.90;12.90;97230.00;;;;5021833;28;20206;-70
2022/05/14 05:45:25;;;;;;;6.53;4.77;;;11.80;99.90;13.10;97228.00;;;;5027072;28;20200;-72
2022/05/14 05:48:14;;;;;;;7.17;5.50;;;12.00;99.90;13.30;97227.00;;;;5026646;28;20685;-70
2022/05/14 05:51:03;;;;;;;5.00;4.50;;;12.10;99.90;13.50;97228.00;;;;5027187;28;20254;-71
2022/05/14 05:57:00;;;;;;;7.47;5.10;;;12.40;99.90;13.80;97223.00;;;;5023708;28;20568;-70
2022/05/14 05:59:50;;;;;;;7.60;5.93;;;12.60;99.90;14.30;97218.00;;;;5024337;28;21042;-71
2022/05/14 06:02:39;;;;;;;5.87;5.23;;;12.80;99.90;14.40;97227.00;;;;5026885;28;20205;-71
2022/05/14 06:05:29;;;;;;;16.77;6.83;;;13.00;99.90;15.00;97229.00;;;;5026868;28;20275;-71
2022/05/14 06:08:21;;;;;;;8.77;5.73;;;13.20;99.90;15.20;97230.00;;;;5025014;28;20209;-71
2022/05/14 06:11:09;;;;;;;7.70;5.20;;;13.50;99.90;15.30;97240.00;;;;5025398;28;20240;-71
2022/05/14 06:13:58;;;;;;;8.40;5.73;;;13.70;99.90;15.60;97237.00;;;;5023967;28;20209;-71
2022/05/14 06:16:49;;;;;;;5.83;4.60;;;13.90;99.90;15.90;97247.00;;;;5027538;28;20193;-71
2022/05/14 06:19:38;;;;;;;9.10;6.53;;;14.20;99.90;16.00;97245.00;;;;5021767;28;20704;-71
2022/05/14 06:22:27;;;;;;;7.10;5.17;;;14.40;99.90;16.30;97256.00;;;;5028914;28;20223;-70
2022/05/14 06:25:15;;;;;;;8.80;4.97;;;14.60;99.90;16.60;97248.00;;;;5026083;28;20209;-70
2022/05/14 06:28:05;;;;;;;7.73;4.70;;;14.70;99.90;16.80;97254.00;;;;5033012;28;20237;-70
2022/05/14 06:30:54;;;;;;;8.17;4.37;;;15.00;99.90;17.00;97247.00;;;;5023419;28;20233;-70
2022/05/14 06:33:45;;;;;;;6.83;4.50;;;15.20;99.90;17.20;97249.00;;;;5023319;28;20664;-70
2022/05/14 06:36:33;;;;;;;5.57;4.53;;;15.40;99.90;17.40;97245.00;;;;5026365;28;20204;-70
2022/05/14 06:39:22;;;;;;;9.93;4.87;;;15.60;99.90;17.40;97247.00;;;;5023579;28;20221;-70
2022/05/14 06:42:13;;;;;;;5.90;4.00;;;15.70;99.90;17.60;97257.00;;;;5026380;28;20204;-70
2022/05/14 06:45:01;;;;;;;7.97;4.13;;;15.80;99.90;17.50;97260.00;;;;5026608;28;20219;-70
2022/05/14 06:47:50;;;;;;;6.23;4.60;;;16.00;99.90;17.60;97264.00;;;;5018880;28;20201;-71
2022/05/14 06:50:45;;;;;;;5.57;4.43;;;16.10;99.90;17.60;97252.00;;;;5026619;28;20232;-70
2022/05/14 06:53:37;;;;;;;4.50;3.57;;;16.20;99.90;17.40;97252.00;;;;5024360;28;20214;-70
2022/05/14 06:56:28;;;;;;;6.77;3.83;;;16.30;99.90;17.60;97256.00;;;;5019336;28;20202;-70
2022/05/14 06:59:17;;;;;;;6.03;4.27;;;16.30;99.90;18.00;97268.00;;;;5027039;28;20214;-70
2022/05/14 07:02:06;;;;;;;5.50;3.83;;;16.50;99.90;18.60;97269.00;;;;5016825;28;20398;-70
2022/05/14 07:08:05;;;;;;;5.80;3.90;;;16.90;99.90;19.20;97258.00;;;;5023489;28;20236;-70
2022/05/14 07:10:54;;;;;;;8.30;4.53;;;17.20;99.90;19.90;97265.00;;;;5028455;28;20233;-70
2022/05/14 07:13:43;;;;;;;5.00;3.87;;;17.60;99.90;20.10;97268.00;;;;5023489;28;20209;-70
2022/05/14 07:16:35;;;;;;;6.80;4.67;;;17.90;99.90;20.50;97267.00;;;;5025650;28;20707;-70
2022/05/14 07:19:26;;;;;;;6.53;4.30;;;18.30;99.90;20.60;97268.00;;;;5025455;28;20222;-70
2022/05/14 07:22:15;;;;;;;10.57;4.37;;;18.50;99.90;20.70;97267.00;;;;5031776;28;20213;-70
2022/05/14 07:25:08;;;;;;;10.97;5.37;;;18.80;99.90;20.90;97281.00;;;;5030872;28;20202;-70
2022/05/14 07:27:59;;;;;;;15.43;5.43;;;19.00;99.90;21.00;97269.00;;;;5024297;28;20353;-70
2022/05/14 07:30:47;;;;;;;16.13;4.17;;;19.10;99.90;21.10;97265.00;;;;5030040;28;20233;-70
2022/05/14 07:33:38;;;;;;;10.00;4.53;;;19.30;99.90;21.00;97264.00;;;;5030618;28;20224;-71
2022/05/14 07:36:27;;;;;;;3.83;3.10;;;19.40;99.90;20.80;97265.00;;;;5026696;28;21378;-70
2022/05/14 07:39:20;;;;;;;3.43;3.13;;;19.50;99.90;20.70;97257.00;;;;5023880;28;20201;-71
2022/05/14 07:42:16;;;;;;;4.37;3.20;;;19.50;99.90;20.60;97260.00;;;;5028749;28;20591;-71
2022/05/14 07:45:08;;;;;;;5.43;2.47;;;19.40;99.90;20.30;97260.00;;;;5027323;28;20201;-71
2022/05/14 07:47:58;;;;;;;5.90;2.97;;;19.30;99.90;20.60;97262.00;;;;5024148;28;20263;-71
2022/05/14 07:50:48;;;;;;;4.17;2.90;;;19.30;99.90;20.20;97263.00;;;;5023602;28;20790;-70
2022/05/14 07:53:37;;;;;;;4.77;3.03;;;19.30;99.90;20.10;97253.00;;;;5027130;28;20202;-70
2022/05/14 07:56:26;;;;;;;3.27;2.97;;;19.20;99.90;20.20;97266.00;;;;5027875;28;20210;-69
2022/05/14 07:59:16;;;;;;;2.87;2.53;;;19.20;99.90;20.40;97265.00;;;;5025216;28;20716;-71
2022/05/14 08:02:09;;;;;;;6.70;2.77;;;19.30;99.90;19.70;97263.00;;;;5026825;28;20209;-70
2022/05/14 08:04:58;;;;;;;2.23;2.07;;;19.20;99.90;20.00;97276.00;;;;5022601;28;20233;-68
2022/05/14 08:07:47;;;;;;;4.23;3.17;;;19.10;99.90;19.70;97256.00;;;;5026975;28;20203;-68
2022/05/14 08:10:37;;;;;;;2.87;2.53;;;19.10;99.90;19.90;97253.00;;;;5029685;28;20600;-72
2022/05/14 08:13:27;;;;;;;2.67;2.47;;;19.10;99.90;19.40;97254.00;;;;5028526;28;20213;-68
2022/05/14 08:16:17;;;;;;;3.83;2.37;;;18.90;99.90;20.00;97255.00;;;;5029400;28;20209;-70
2022/05/14 08:19:05;;;;;;;7.20;3.87;;;18.90;99.90;20.40;97252.00;;;;5031184;28;20209;-71
2022/05/14 08:25:00;;;;;;;4.50;2.77;;;19.30;99.90;21.40;97260.00;;;;5025494;28;20211;-71
2022/05/14 08:27:49;;;;;;;3.13;2.67;;;19.70;99.90;21.20;97263.00;;;;5029260;28;20208;-70
2022/05/14 08:30:38;;;;;;;6.07;2.50;;;19.80;99.90;21.70;97244.00;;;;5027442;28;20229;-71
2022/05/14 08:33:28;;;;;;;3.23;2.67;;;20.00;99.90;21.80;97254.00;;;;5027245;28;20232;-71
2022/05/14 08:36:17;;;;;;;5.27;3.03;;;20.30;99.90;21.30;97248.00;;;;5032019;28;20738;-71
2022/05/14 08:39:07;;;;;;;4.40;2.30;;;20.30;99.90;21.90;97239.00;;;;5024500;28;20205;-71
2022/05/14 08:41:58;;;;;;;2.63;2.00;;;20.40;99.90;20.90;97229.00;;;;5023260;28;21002;-68
2022/05/14 08:44:49;;;;;;;4.53;2.40;;;20.40;99.90;21.30;97241.00;;;;5025541;28;20193;-71
2022/05/14 08:47:43;;;;;;;2.67;2.37;;;20.30;99.90;22.00;97238.00;;;;5027858;28;20197;-71
2022/05/14 08:50:37;;;;;;;2.73;2.47;;;20.50;99.90;22.00;97234.00;;;;5029791;28;20229;-70
2022/05/14 08:53:29;;;;;;;3.40;2.37;;;20.70;99.90;22.30;97232.00;;;;5030270;28;20703;-70
2022/05/14 08:56:32;;;;;;;4.93;2.70;;;21.00;99.90;22.80;97238.00;;;;5029644;28;20197;-70
2022/05/14 08:59:47;;;;;;;3.67;2.40;;;21.30;99.90;22.90;97233.00;;;;5016097;28;20836;-70
2022/05/14 09:02:41;;;;;;;4.47;2.77;;;21.50;99.90;22.20;97248.00;;;;5027141;28;20214;-69
2022/05/14 09:05:35;;;;;;;2.47;2.23;;;21.50;99.90;21.90;97221.00;;;;5021448;28;20206;-70
2022/05/14 09:08:23;;;;;;;3.90;2.30;;;21.30;99.90;22.70;97223.00;;;;5026516;28;20576;-70
2022/05/14 09:11:23;;;;;;;3.40;2.23;;;21.40;99.90;22.50;97220.00;;;;5023758;28;20709;-70
2022/05/14 09:14:22;;;;;;;5.17;2.33;;;21.50;99.90;21.30;97222.00;;;;5026391;28;20684;-70
2022/05/14 09:17:20;;;;;;;3.73;2.50;;;21.40;96.80;21.20;97212.00;;;;5023072;28;20205;-70
2022/05/14 09:20:10;;;;;;;4.37;2.70;;;21.00;98.10;21.00;97204.00;;;;5026972;28;20615;-69
2022/05/14 09:23:00;;;;;;;2.80;2.60;;;20.80;98.40;21.80;97203.00;;;;5030430;28;20280;-70
2022/05/14 09:25:49;;;;;;;3.37;2.73;;;20.90;99.20;22.20;97207.00;;;;5025988;28;20579;-70
2022/05/14 09:28:43;;;;;;;4.17;2.03;;;21.00;98.00;21.50;97187.00;;;;5026366;28;20908;-70
2022/05/14 09:31:36;;;;;;;6.07;2.37;;;21.00;99.90;22.30;97215.00;;;;5028308;28;20209;-70
2022/05/14 09:34:25;;;;;;;2.30;2.10;;;21.10;98.40;23.50;97211.00;;;;5026014;28;20205;-70
2022/05/14 09:37:20;;;;;;;4.43;2.43;;;21.40;99.90;23.60;97212.00;;;;5027495;28;20213;-69
2022/05/14 09:40:21;;;;;;;2.47;2.27;;;21.90;99.90;22.90;97203.00;;;;5028346;28;20225;-70
2022/05/14 09:43:26;;;;;;;6.07;2.97;;;22.00;97.40;23.30;97183.00;;;;5022520;28;20200;-71
2022/05/14 09:46:27;;;;;;;2.63;2.20;;;22.10;98.60;23.70;97200.00;;;;5021386;28;20210;-70
2022/05/14 09:52:13;;;;;;;3.47;2.20;;;22.30;96.40;23.10;97180.00;;;;4988652;28;20235;-86
2022/05/14 09:55:08;;;;;;;2.83;2.60;;;22.40;94.70;22.90;97182.00;;;;5010430;28;20221;-87
2022/05/14 09:58:03;;;;;;;3.40;2.70;;;22.30;94.80;23.70;97186.00;;;;5009149;28;20213;-86
2022/05/14 10:01:01;;;;;;;4.33;2.10;;;22.50;94.60;24.60;97183.00;;;;5011007;28;20202;-87
2022/05/14 10:04:07;;;;;;;2.60;2.10;;;22.80;93.20;25.10;97199.00;;;;5004610;28;20697;-87
2022/05/14 10:07:03;;;;;;;3.60;2.67;;;23.10;95.00;24.60;97196.00;;;;5001670;28;20208;-86
2022/05/14 10:10:04;;;;;;;3.27;2.00;;;23.40;92.60;23.80;97180.00;;;;5008423;28;20205;-87
2022/05/14 10:13:02;;;;;;;2.80;2.40;;;23.20;91.20;23.20;97183.00;;;;5004324;28;20200;-86
2022/05/14 10:16:02;;;;;;;3.13;2.77;;;22.80;91.20;23.70;97183.00;;;;5004527;28;20206;-87
2022/05/14 10:19:15;;;;;;;2.87;2.13;;;22.90;90.10;24.00;97168.00;;;;5006426;28;20213;-84
2022/05/14 10:22:13;;;;;;;3.90;2.20;;;22.90;85.90;24.30;97164.00;;;;5007312;28;20205;-88
2022/05/14 10:28:36;;;;;;;2.80;2.33;;;23.20;91.50;24.40;97160.00;;;;4995333;28;20658;-87
2022/05/14 10:31:37;;;;;;;2.97;2.07;;;23.50;90.20;23.40;97150.00;;;;5005559;28;20665;-88
2022/05/14 10:34:38;;;;;;;4.27;2.50;;;23.30;88.40;24.90;97154.00;;;;5007785;28;20233;-87
2022/05/14 10:37:32;;;;;;;3.93;3.03;;;23.50;91.80;25.60;97161.00;;;;5007840;28;20694;-87
2022/05/14 10:40:29;;;;;;;3.63;2.53;;;23.80;91.80;24.70;97152.00;;;;5005092;28;20217;-86
2022/05/14 10:43:34;;;;;;;4.07;3.70;;;23.80;86.80;25.90;97146.00;;;;5003985;28;20255;-86
2022/05/14 10:46:25;;;;;;;2.47;2.27;;;24.00;90.20;26.00;97153.00;;;;5010064;28;20224;-87
2022/05/14 10:49:22;;;;;;;3.83;2.87;;;24.30;88.70;26.40;97145.00;;;;5006209;28;20244;-87
2022/05/14 10:52:15;;;;;;;2.67;2.47;;;24.60;90.50;27.00;97146.00;;;;5007871;28;20213;-87
2022/05/14 10:55:14;;;;;;;2.77;2.53;;;24.90;90.00;27.30;97139.00;;;;5008101;28;20225;-88
2022/05/14 10:58:07;;;;;;;4.57;2.57;;;25.20;90.20;27.90;97143.00;;;;5001957;28;20675;-87
2022/05/14 11:00:59;;;;;;;2.97;2.33;;;25.50;90.20;28.10;97130.00;;;;5011640;28;20206;-87
2022/05/14 11:03:57;;;;;;;4.13;2.50;;;25.80;89.30;27.90;97123.00;;;;5013451;28;20228;-87
2022/05/14 11:07:00;;;;;;;2.70;2.50;;;26.20;85.10;28.70;97123.00;;;;5012289;28;21008;-87
2022/05/14 11:09:51;;;;;;;3.27;2.80;;;26.50;85.90;28.80;97126.00;;;;5012922;28;20282;-88
2022/05/14 11:12:44;;;;;;;5.07;3.47;;;26.80;85.70;29.50;97115.00;;;;5010459;28;20275;-88
2022/05/14 11:15:33;;;;;;;3.50;3.13;;;27.10;85.90;29.70;97111.00;;;;5014496;28;20298;-89
2022/05/14 11:18:23;;;;;;;3.23;2.90;;;27.30;84.00;29.50;97107.00;;;;5015838;28;20208;-88
2022/05/14 11:21:14;;;;;;;4.53;2.73;;;27.50;81.30;30.00;97107.00;;;;5030845;28;20213;-89
2022/05/14 11:24:04;;;;;;;4.50;2.57;;;27.70;80.60;30.30;97099.00;;;;5030427;28;20250;-90
2022/05/14 11:26:55;;;;;;;12.43;3.17;;;27.90;79.30;30.50;97097.00;;;;5020646;28;20616;-88
2022/05/14 11:29:53;;;;;;;4.87;2.17;;;28.10;77.20;29.90;97089.00;;;;5012803;28;20680;-88
2022/05/14 11:32:48;;;;;;;4.70;2.50;;;28.20;74.60;30.40;97083.00;;;;5012895;28;20239;-88
2022/05/14 11:35:43;;;;;;;2.90;2.27;;;28.30;73.70;28.70;97055.00;;;;5036625;22;20294;-74
2022/05/14 11:38:36;;;;;;;3.57;2.07;;;28.40;68.40;29.30;97075.00;;;;5003376;28;20201;-68
2022/05/14 11:41:32;;;;;;;2.90;2.50;;;28.10;68.80;28.20;97064.00;;;;5006421;28;20228;-67
2022/05/14 11:44:35;;;;;;;3.80;2.33;;;27.70;67.30;29.70;97072.00;;;;5003042;28;20636;-67
2022/05/14 11:48:01;;;;;;;3.07;2.47;;;27.80;70.10;30.70;97064.00;;;;5003144;28;20224;-66
2022/05/14 11:51:13;;;;;;;4.83;2.53;;;28.20;71.80;31.50;97064.00;;;;5006710;28;20234;-67
2022/05/14 11:54:09;;;;;;;2.38;2.03;;;28.60;70.20;32.10;97057.00;;;;4999981;28;20201;-67
2022/05/14 11:57:03;;;;;;;4.03;2.30;;;29.20;70.10;31.60;97060.00;;;;5005219;28;20214;-66
2022/05/14 11:59:59;;;;;;;2.55;2.13;;;29.50;67.00;32.00;97050.00;;;;5004775;28;20714;-68
2022/05/14 12:02:53;;;;;;;2.20;2.00;;;29.70;66.00;32.10;97046.00;;;;5005545;28;20225;-68
2022/05/14 12:05:47;;;;;;;2.95;2.33;;;29.80;66.00;32.10;97043.00;;;;5003068;28;20212;-68
2022/05/14 12:09:16;;;;;;;3.70;2.20;;;30.00;64.40;32.60;97049.00;;;;5004626;28;20337;-68
2022/05/14 12:12:12;;;;;;;4.20;2.03;;;30.30;65.80;32.00;97050.00;;;;5005336;28;20236;-67
2022/05/14 12:15:08;;;;;;;3.40;2.28;;;30.40;64.60;32.10;97026.00;;;;5005940;28;20582;-68
2022/05/14 12:17:59;;;;;;;3.08;2.80;;;30.50;63.50;32.80;97020.00;;;;5001950;28;20212;-67
2022/05/14 12:20:57;;;;;;;2.88;2.17;;;30.60;61.90;33.30;97027.00;;;;5004251;28;20615;-68
2022/05/14 12:23:49;;;;;;;2.28;2.17;;;30.90;62.00;32.70;97026.00;;;;5008392;28;20697;-67
2022/05/14 12:26:45;;;;;;;2.83;2.60;;;30.90;58.00;33.30;97026.00;;;;5003145;28;20205;-65
2022/05/14 12:29:35;;;;;;;2.88;2.40;;;31.00;60.20;33.70;97018.00;;;;5003993;28;20564;-65
2022/05/14 12:35:32;;;;;;;3.13;2.53;;;31.20;57.70;31.90;97023.00;;;;5006522;28;20221;-65
2022/05/14 12:38:28;;;;;;;4.28;2.15;;;30.80;56.70;32.10;97000.00;;;;5005877;28;20212;-65
2022/05/14 12:41:31;;;;;;;2.65;2.10;;;30.80;56.20;33.20;97002.00;;;;5003978;28;20234;-65
2022/05/14 12:44:26;;;;;;;3.05;2.75;;;30.80;56.60;33.00;97008.00;;;;5004111;28;20231;-65
2022/05/14 12:47:23;;;;;;;3.47;2.53;;;31.00;56.50;34.30;97002.00;;;;5006874;28;20237;-65
2022/05/14 12:50:20;;;;;;;2.58;2.20;;;;;33.60;96989.00;;;;5004218;28;20249;-65
2022/05/14 12:53:13;;;;;;;2.20;2.10;;;31.60;55.00;33.80;96983.00;;;;5002910;28;20217;-65
2022/05/14 12:56:02;;;;;;;2.45;2.25;;;31.60;55.80;35.00;96985.00;;;;5004722;28;20210;-65
2022/05/14 12:58:52;;;;;;;5.03;3.13;;;31.90;56.10;35.30;96979.00;;;;5000376;28;20206;-65
2022/05/14 13:01:42;;;;;;;2.20;1.90;;;32.20;55.50;35.20;96980.00;;;;5003101;28;20700;-65
2022/05/14 13:04:37;;;;;;;3.50;2.60;;;32.70;54.10;34.30;96976.00;;;;5008635;28;20234;-65
2022/05/14 13:07:26;;;;;;;4.85;2.60;;;32.70;52.80;34.70;96976.00;;;;5009368;28;20206;-65
2022/05/14 13:10:19;;;;;;;3.40;1.85;;;32.70;52.00;34.90;96966.00;;;;5006624;28;20225;-65
2022/05/14 13:13:10;;;;;;;3.47;2.75;;;32.60;52.30;35.00;96968.00;;;;5006186;28;20401;-65
2022/05/14 13:15:59;;;;;;;3.28;2.00;;;32.70;51.80;33.30;96972.00;;;;4999766;28;20425;-65